createdAt,value
2019-03-10T00:00:41.260Z,2.73
2019-03-10T00:03:09.873Z,3.60
2019-03-10T00:05:38.458Z,3.43
2019-03-10T00:08:26.433Z,3.03
2019-03-10T00:10:55.061Z,2.67
2019-03-10T00:13:23.584Z,3.13
2019-03-10T00:15:52.232Z,3.53
2019-03-10T00:18:20.859Z,3.37
2019-03-10T00:20:49.317Z,2.80
2019-03-10T00:23:17.816Z,2.80
2019-03-10T00:25:46.351Z,3.20
2019-03-10T00:28:14.931Z,4.03
2019-03-10T00:30:43.428Z,3.20
2019-03-10T00:33:11.875Z,3.43
2019-03-10T00:35:40.345Z,2.87
2019-03-10T00:38:08.980Z,3.10
2019-03-10T00:40:57.291Z,3.13
2019-03-10T00:43:34.683Z,2.57
2019-03-10T00:46:22.699Z,2.40
2019-03-10T00:49:15.233Z,2.90
2019-03-10T00:51:52.385Z,2.83
2019-03-10T00:54:20.909Z,3.10
2019-03-10T00:56:49.374Z,3.37
2019-03-10T00:59:17.891Z,2.80
2019-03-10T01:01:46.383Z,3.10
2019-03-10T01:04:14.826Z,2.70
2019-03-10T01:06:43.455Z,2.63
2019-03-10T01:09:11.961Z,2.60
2019-03-10T01:11:40.416Z,2.70
2019-03-10T01:14:08.872Z,2.97
2019-03-10T01:16:37.992Z,2.83
2019-03-10T01:19:06.513Z,2.77
2019-03-10T01:21:35.420Z,2.90
2019-03-10T01:24:04.263Z,2.70
2019-03-10T01:26:32.951Z,3.23
2019-03-10T01:29:01.483Z,2.80
2019-03-10T01:32:06.410Z,2.63
2019-03-10T01:34:46.210Z,2.83
2019-03-10T01:37:14.768Z,2.27
2019-03-10T01:39:43.219Z,2.00
2019-03-10T01:42:11.666Z,1.93
2019-03-10T01:44:40.183Z,2.50
2019-03-10T01:47:08.638Z,2.20
2019-03-10T01:49:37.152Z,1.87
2019-03-10T01:52:08.765Z,2.27
2019-03-10T01:54:37.765Z,2.17
2019-03-10T01:57:06.298Z,2.03
2019-03-10T01:59:34.828Z,1.70
2019-03-10T02:02:03.284Z,1.63
2019-03-10T02:04:31.740Z,1.50
2019-03-10T02:07:00.312Z,2.40
2019-03-10T02:09:28.882Z,1.60
2019-03-10T02:11:57.408Z,1.83
2019-03-10T02:14:25.924Z,1.77
2019-03-10T02:16:54.375Z,1.80
2019-03-10T02:19:22.960Z,1.63
2019-03-10T02:21:51.464Z,1.70
2019-03-10T02:24:23.770Z,1.90
2019-03-10T02:26:50.150Z,1.60
2019-03-10T02:29:18.635Z,1.63
2019-03-10T02:31:47.085Z,1.63
2019-03-10T02:34:15.543Z,2.13
2019-03-10T02:36:44.025Z,1.30
2019-03-10T02:39:12.494Z,1.40
2019-03-10T02:41:41.069Z,1.47
2019-03-10T02:44:09.704Z,1.57
2019-03-10T02:46:38.330Z,1.80
2019-03-10T02:49:06.777Z,1.90
2019-03-10T02:51:35.273Z,1.97
2019-03-10T02:54:03.819Z,1.67
2019-03-10T02:56:32.411Z,1.40
2019-03-10T02:59:00.971Z,1.60
2019-03-10T03:01:29.561Z,1.77
2019-03-10T03:03:58.078Z,1.67
2019-03-10T03:06:26.576Z,1.90
2019-03-10T03:08:55.092Z,2.00
2019-03-10T03:11:23.619Z,1.30
2019-03-10T03:13:52.100Z,1.70
2019-03-10T03:16:20.546Z,1.73
2019-03-10T03:18:49.015Z,1.70
2019-03-10T03:21:17.578Z,1.73
2019-03-10T03:23:46.127Z,1.50
2019-03-10T03:26:14.639Z,1.40
2019-03-10T03:28:43.365Z,1.27
2019-03-10T03:31:11.831Z,1.20
2019-03-10T03:33:40.349Z,1.20
2019-03-10T03:36:29.944Z,1.73
2019-03-10T03:39:01.706Z,1.60
2019-03-10T03:41:30.297Z,1.53
2019-03-10T03:43:58.779Z,1.60
2019-03-10T03:46:27.228Z,1.50
2019-03-10T03:48:55.691Z,1.50
2019-03-10T03:51:24.395Z,1.10
2019-03-10T03:53:52.891Z,1.20
2019-03-10T03:56:21.335Z,1.90
2019-03-10T03:58:49.828Z,1.63
2019-03-10T04:01:28.923Z,1.30
2019-03-10T04:03:57.528Z,1.23
2019-03-10T04:06:25.985Z,1.60
2019-03-10T04:08:54.496Z,1.30
2019-03-10T04:11:22.982Z,1.50
2019-03-10T04:13:51.435Z,1.13
2019-03-10T04:16:19.906Z,1.27
2019-03-10T04:18:48.481Z,1.07
2019-03-10T04:21:16.947Z,1.20
2019-03-10T04:23:45.420Z,1.03
2019-03-10T04:26:14.060Z,2.03
2019-03-10T04:28:42.495Z,1.20
2019-03-10T04:31:10.954Z,1.50
2019-03-10T04:33:39.459Z,1.20
2019-03-10T04:36:07.970Z,0.90
2019-03-10T04:38:36.459Z,1.30
2019-03-10T04:41:05.031Z,1.00
2019-03-10T04:43:33.475Z,1.20
2019-03-10T04:46:01.919Z,1.23
2019-03-10T04:48:30.484Z,1.40
2019-03-10T04:50:58.975Z,1.30
2019-03-10T04:53:27.469Z,1.60
2019-03-10T04:55:57.688Z,1.17
2019-03-10T04:58:26.412Z,1.17
2019-03-10T05:00:56.568Z,1.47
2019-03-10T05:03:25.075Z,1.20
2019-03-10T05:05:53.596Z,1.30
2019-03-10T05:08:22.043Z,1.40
2019-03-10T05:10:50.624Z,1.40
2019-03-10T05:13:19.084Z,1.27
2019-03-10T05:15:47.526Z,1.10
2019-03-10T05:18:16.108Z,1.10
2019-03-10T05:20:44.550Z,1.50
2019-03-10T05:23:33.218Z,1.23
2019-03-10T05:26:01.817Z,1.53
2019-03-10T05:28:32.217Z,1.43
2019-03-10T05:31:00.777Z,1.23
2019-03-10T05:33:29.229Z,1.40
2019-03-10T05:35:57.711Z,1.30
2019-03-10T05:38:26.281Z,2.20
2019-03-10T05:40:54.833Z,1.40
2019-03-10T05:43:42.689Z,1.57
2019-03-10T05:46:11.149Z,1.70
2019-03-10T05:48:40.114Z,1.40
2019-03-10T05:51:08.591Z,1.67
2019-03-10T05:53:37.036Z,1.60
2019-03-10T05:56:05.486Z,1.60
2019-03-10T05:58:35.344Z,1.63
2019-03-10T06:01:04.112Z,1.73
2019-03-10T06:03:32.622Z,1.40
2019-03-10T06:06:01.129Z,1.70
2019-03-10T06:08:29.633Z,1.70
2019-03-10T06:10:58.113Z,1.93
2019-03-10T06:13:26.709Z,1.70
2019-03-10T06:15:55.282Z,1.70
2019-03-10T06:18:23.811Z,1.67
2019-03-10T06:20:52.284Z,2.37
2019-03-10T06:23:20.738Z,1.70
2019-03-10T06:25:49.262Z,2.23
2019-03-10T06:28:37.288Z,1.80
2019-03-10T06:31:05.755Z,1.57
2019-03-10T06:33:34.209Z,1.90
2019-03-10T06:36:02.699Z,2.13
2019-03-10T06:38:31.152Z,1.80
2019-03-10T06:40:59.593Z,1.70
2019-03-10T06:43:28.192Z,2.00
2019-03-10T06:45:56.643Z,1.70
2019-03-10T06:48:44.480Z,2.20
2019-03-10T06:51:12.947Z,2.13
2019-03-10T06:53:41.396Z,2.30
2019-03-10T06:56:09.910Z,2.70
2019-03-10T06:58:38.367Z,2.20
2019-03-10T07:01:06.961Z,2.13
2019-03-10T07:03:35.459Z,2.20
2019-03-10T07:06:04.109Z,2.47
2019-03-10T07:08:32.756Z,2.87
2019-03-10T07:11:01.354Z,2.00
2019-03-10T07:13:29.802Z,2.77
2019-03-10T07:15:58.266Z,2.50
2019-03-10T07:18:32.479Z,2.47
2019-03-10T07:21:01.001Z,2.60
2019-03-10T07:23:29.464Z,3.17
2019-03-10T07:26:07.131Z,3.40
2019-03-10T07:28:41.253Z,2.77
2019-03-10T07:31:17.254Z,3.00
2019-03-10T07:33:53.434Z,2.90
2019-03-10T07:36:35.507Z,2.97
2019-03-10T07:39:21.737Z,3.30
2019-03-10T07:42:00.779Z,3.00
2019-03-10T07:44:41.127Z,2.97
2019-03-10T07:47:13.673Z,2.70
2019-03-10T07:49:43.765Z,2.80
2019-03-10T07:52:30.659Z,2.90
2019-03-10T07:55:00.826Z,3.20
2019-03-10T07:57:49.117Z,2.50
2019-03-10T08:00:24.910Z,2.93
2019-03-10T08:03:04.118Z,2.53
2019-03-10T08:05:50.544Z,2.77
2019-03-10T08:08:23.419Z,3.00
2019-03-10T08:10:53.514Z,3.13
2019-03-10T08:13:29.757Z,2.43
2019-03-10T08:15:59.921Z,2.53
2019-03-10T08:18:36.300Z,2.50
2019-03-10T08:21:22.966Z,3.07
2019-03-10T08:24:08.634Z,2.20
2019-03-10T08:26:38.796Z,2.27
2019-03-10T08:29:20.939Z,1.60
2019-03-10T08:31:57.115Z,2.57
2019-03-10T08:34:30.132Z,2.17
2019-03-10T08:37:03.326Z,2.23
2019-03-10T08:39:51.968Z,2.53
2019-03-10T08:42:41.057Z,2.17
2019-03-10T08:45:16.992Z,2.40
2019-03-10T08:47:51.061Z,2.20
2019-03-10T08:50:27.065Z,2.03
2019-03-10T08:53:12.255Z,2.30
2019-03-10T08:55:42.398Z,2.27
2019-03-10T08:58:15.252Z,1.73
2019-03-10T09:00:51.256Z,1.10
2019-03-10T09:03:27.146Z,1.10
2019-03-10T09:06:13.777Z,1.10
2019-03-10T09:08:46.803Z,1.47
2019-03-10T09:11:29.346Z,1.23
2019-03-10T09:14:02.503Z,1.20
2019-03-10T09:16:32.696Z,1.73
2019-03-10T09:19:08.593Z,1.47
2019-03-10T09:21:41.666Z,1.67
2019-03-10T09:24:17.707Z,1.43
2019-03-10T09:27:06.160Z,1.83
2019-03-10T09:29:48.340Z,1.73
2019-03-10T09:32:18.426Z,1.37
2019-03-10T09:34:48.525Z,1.60
2019-03-10T09:37:18.738Z,1.70
2019-03-10T09:39:51.682Z,1.50
2019-03-10T09:42:41.460Z,1.67
2019-03-10T09:45:11.684Z,1.43
2019-03-10T09:47:53.512Z,1.73
2019-03-10T09:50:23.608Z,1.87
2019-03-10T09:53:11.999Z,1.50
2019-03-10T09:55:42.155Z,2.30
2019-03-10T09:58:18.469Z,1.93
2019-03-10T10:00:51.052Z,1.90
2019-03-10T10:03:23.870Z,2.47
2019-03-10T10:05:53.973Z,2.17
2019-03-10T10:08:29.838Z,2.03
2019-03-10T10:11:02.728Z,2.00
2019-03-10T10:16:25.034Z,2.20
2019-03-10T10:19:06.988Z,1.57
2019-03-10T10:21:39.516Z,1.83
2019-03-10T10:24:12.633Z,2.50
2019-03-10T10:26:45.751Z,2.13
2019-03-10T10:29:34.133Z,1.93
2019-03-10T10:32:07.004Z,2.00
2019-03-10T10:34:52.145Z,2.10
2019-03-10T10:37:22.236Z,2.30
2019-03-10T10:39:52.409Z,2.13
2019-03-10T10:42:28.585Z,1.83
2019-03-10T10:45:07.760Z,1.67
2019-03-10T10:47:46.833Z,1.83
2019-03-10T10:50:19.374Z,2.57
2019-03-10T10:52:49.546Z,1.80
2019-03-10T10:55:19.825Z,1.50
2019-03-10T10:57:52.906Z,2.40
2019-03-10T11:00:32.126Z,1.17
2019-03-10T11:03:14.221Z,1.47
2019-03-10T11:05:44.431Z,1.40
2019-03-10T11:08:17.388Z,1.33
2019-03-10T11:10:47.485Z,1.57
2019-03-10T11:13:23.515Z,1.80
2019-03-10T11:15:53.835Z,1.77
2019-03-10T11:18:33.327Z,1.50
2019-03-10T11:23:54.016Z,1.43
2019-03-10T11:26:24.164Z,1.93
2019-03-10T11:29:04.031Z,1.73
2019-03-10T11:31:34.592Z,1.90
2019-03-10T11:34:20.677Z,1.50
2019-03-10T11:37:03.004Z,1.60
2019-03-10T11:39:33.094Z,1.93
2019-03-10T11:42:03.189Z,1.80
2019-03-10T11:44:33.332Z,1.67
2019-03-10T11:47:09.366Z,1.70
2019-03-10T11:49:42.022Z,2.30
2019-03-10T11:52:14.699Z,1.80
2019-03-10T11:54:44.849Z,1.70
2019-03-10T11:57:46.586Z,1.77
2019-03-10T12:00:21.431Z,2.10
2019-03-10T12:02:54.533Z,1.90
2019-03-10T12:05:24.629Z,2.07
2019-03-10T12:07:57.716Z,2.00
2019-03-10T12:10:26.319Z,1.80
2019-03-10T12:12:54.990Z,2.10
2019-03-10T12:15:23.516Z,2.03
2019-03-10T12:17:52.096Z,1.70
2019-03-10T12:20:20.701Z,1.90
2019-03-10T12:22:49.219Z,1.60
2019-03-10T12:25:17.878Z,1.60
2019-03-10T12:27:46.330Z,2.03
2019-03-10T12:30:16.346Z,2.47
2019-03-10T12:32:45.154Z,2.70
2019-03-10T12:35:13.692Z,2.20
2019-03-10T12:37:42.231Z,2.10
2019-03-10T12:40:12.325Z,1.90
2019-03-10T12:42:40.905Z,2.13
2019-03-10T12:45:10.950Z,1.90
2019-03-10T12:47:39.509Z,2.40
2019-03-10T12:50:12.942Z,1.50
2019-03-10T12:52:41.576Z,1.67
2019-03-10T12:55:10.822Z,1.80
2019-03-10T12:57:39.340Z,1.67
2019-03-10T13:00:15.913Z,2.40
2019-03-10T13:02:45.047Z,1.80
2019-03-10T13:05:13.654Z,1.77
2019-03-10T13:07:42.454Z,1.10
2019-03-10T13:10:12.671Z,1.03
2019-03-10T13:12:41.219Z,1.30
2019-03-10T13:15:11.755Z,1.27
2019-03-10T13:17:40.204Z,1.37
2019-03-10T13:20:12.226Z,1.40
2019-03-10T13:22:41.000Z,1.20
2019-03-10T13:25:11.804Z,1.20
2019-03-10T13:27:40.373Z,1.10
2019-03-10T13:30:11.512Z,1.33
2019-03-10T13:32:39.956Z,1.30
2019-03-10T13:35:08.654Z,1.20
2019-03-10T13:37:37.216Z,1.20
2019-03-10T13:40:11.253Z,1.20
2019-03-10T13:42:39.728Z,1.40
2019-03-10T13:45:11.388Z,1.20
2019-03-10T13:47:39.909Z,1.30
2019-03-10T13:50:11.672Z,1.50
2019-03-10T13:52:42.655Z,1.10
2019-03-10T13:55:11.301Z,1.03
2019-03-10T13:57:39.758Z,2.10
2019-03-10T14:00:14.377Z,2.20
2019-03-10T14:02:42.904Z,1.50
2019-03-10T14:05:11.710Z,1.10
2019-03-10T14:07:40.363Z,1.27
2019-03-10T14:10:10.860Z,0.80
2019-03-10T14:12:39.436Z,0.80
2019-03-10T14:15:11.120Z,0.90
2019-03-10T14:17:39.592Z,1.00
2019-03-10T14:20:10.642Z,1.20
2019-03-10T14:22:39.211Z,1.23
2019-03-10T14:25:09.717Z,1.23
2019-03-10T14:27:38.231Z,1.10
2019-03-10T14:30:15.644Z,1.17
2019-03-10T14:32:44.342Z,1.57
2019-03-10T14:35:13.277Z,1.07
2019-03-10T14:37:41.943Z,1.30
2019-03-10T14:40:16.044Z,1.83
2019-03-10T14:42:44.701Z,1.37
2019-03-10T14:45:15.779Z,1.00
2019-03-10T14:47:44.470Z,1.17
2019-03-10T14:50:15.334Z,1.13
2019-03-10T14:52:43.880Z,1.30
2019-03-10T14:55:17.725Z,1.30
2019-03-10T14:57:46.182Z,1.20
2019-03-10T15:00:18.313Z,1.20
2019-03-10T15:02:47.187Z,1.67
2019-03-10T15:05:15.724Z,1.67
2019-03-10T15:07:44.226Z,1.50
2019-03-10T15:10:14.537Z,1.83
2019-03-10T15:12:43.498Z,1.53
2019-03-10T15:15:22.643Z,1.47
2019-03-10T15:17:50.413Z,1.60
2019-03-10T15:20:21.615Z,1.77
2019-03-10T15:22:49.922Z,1.40
2019-03-10T15:25:19.522Z,1.40
2019-03-10T15:27:48.041Z,1.60
2019-03-10T15:30:21.930Z,1.67
2019-03-10T15:32:50.408Z,1.53
2019-03-10T15:35:18.939Z,1.70
2019-03-10T15:37:47.500Z,1.50
2019-03-10T15:40:19.664Z,1.50
2019-03-10T15:42:48.362Z,1.77
2019-03-10T15:45:20.415Z,1.70
2019-03-10T15:47:49.072Z,1.60
2019-03-10T15:50:25.811Z,1.70
2019-03-10T15:52:54.510Z,1.67
2019-03-10T15:55:24.576Z,1.73
2019-03-10T15:57:53.489Z,1.90
2019-03-10T16:00:23.683Z,1.80
2019-03-10T16:02:52.288Z,1.87
2019-03-10T16:05:20.994Z,1.60
2019-03-10T16:07:49.628Z,1.97
2019-03-10T16:10:18.300Z,1.50
2019-03-10T16:12:49.374Z,1.73
2019-03-10T16:15:33.065Z,2.03
2019-03-10T16:18:01.649Z,1.77
2019-03-10T16:20:30.194Z,1.57
2019-03-10T16:22:58.913Z,1.60
2019-03-10T16:25:27.533Z,1.80
2019-03-10T16:27:56.145Z,1.83
2019-03-10T16:30:26.244Z,1.70
2019-03-10T16:32:54.879Z,2.10
2019-03-10T16:35:23.553Z,1.77
2019-03-10T16:37:52.280Z,1.53
2019-03-10T16:40:21.791Z,1.70
2019-03-10T16:42:50.456Z,1.70
2019-03-10T16:45:23.479Z,2.10
2019-03-10T16:47:52.108Z,2.00
2019-03-10T16:50:21.837Z,1.60
2019-03-10T16:52:50.559Z,1.70
2019-03-10T16:55:19.364Z,2.10
2019-03-10T16:57:47.965Z,2.43
2019-03-10T17:00:19.997Z,2.00
2019-03-10T17:02:49.407Z,1.97
2019-03-10T17:05:21.774Z,1.80
2019-03-10T17:07:50.714Z,2.00
2019-03-10T17:10:26.971Z,1.87
2019-03-10T17:12:55.600Z,1.80
2019-03-10T17:15:25.198Z,1.93
2019-03-10T17:17:53.874Z,2.03
2019-03-10T17:20:22.639Z,1.83
2019-03-10T17:22:51.246Z,2.00
2019-03-10T17:25:19.799Z,1.97
2019-03-10T17:27:48.533Z,1.80
2019-03-10T17:30:19.342Z,1.80
2019-03-10T17:32:50.145Z,1.67
2019-03-10T17:35:19.492Z,1.90
2019-03-10T17:37:48.931Z,1.93
2019-03-10T17:40:24.476Z,2.20
2019-03-10T17:42:53.234Z,2.00
2019-03-10T17:45:23.875Z,1.80
2019-03-10T17:47:52.369Z,2.20
2019-03-10T17:50:20.991Z,2.40
2019-03-10T17:52:50.236Z,2.40
2019-03-10T17:55:24.060Z,2.00
2019-03-10T17:57:52.659Z,2.83
2019-03-10T18:00:37.810Z,2.20
2019-03-10T18:03:06.478Z,2.90
2019-03-10T18:05:35.077Z,2.50
2019-03-10T18:08:03.689Z,2.60
2019-03-10T18:10:32.180Z,2.27
2019-03-10T18:13:00.699Z,2.53
2019-03-10T18:15:29.388Z,2.67
2019-03-10T18:17:57.898Z,2.80
2019-03-10T18:20:26.409Z,2.20
2019-03-10T18:22:55.012Z,2.67
2019-03-10T18:25:23.618Z,3.10
2019-03-10T18:27:52.183Z,5.10
2019-03-10T18:30:27.486Z,7.03
2019-03-10T18:32:55.962Z,6.07
2019-03-10T18:35:24.633Z,5.87
2019-03-10T18:37:53.153Z,2.70
2019-03-10T18:40:26.692Z,2.70
2019-03-10T18:42:55.342Z,2.47
2019-03-10T18:45:23.902Z,2.77
2019-03-10T18:47:52.361Z,3.17
2019-03-10T18:50:22.640Z,2.87
2019-03-10T18:52:51.201Z,3.13
2019-03-10T18:55:21.890Z,2.10
2019-03-10T18:57:50.567Z,2.63
2019-03-10T19:00:25.106Z,2.30
2019-03-10T19:02:53.778Z,2.53
2019-03-10T19:05:22.286Z,1.93
2019-03-10T19:07:50.837Z,1.97
2019-03-10T19:10:19.363Z,2.50
2019-03-10T19:12:47.947Z,2.00
2019-03-10T19:15:21.415Z,2.30
2019-03-10T19:17:49.950Z,2.40
2019-03-10T19:20:18.597Z,2.77
2019-03-10T19:22:47.213Z,3.60
2019-03-10T19:25:16.718Z,7.27
2019-03-10T19:27:45.567Z,4.30
2019-03-10T19:30:18.470Z,3.50
2019-03-10T19:32:47.088Z,3.27
2019-03-10T19:35:15.727Z,3.23
2019-03-10T19:37:44.215Z,2.70
2019-03-10T19:40:17.345Z,2.80
2019-03-10T19:42:46.097Z,2.50
2019-03-10T19:45:18.850Z,2.50
2019-03-10T19:47:47.458Z,2.67
2019-03-10T19:50:21.106Z,2.10
2019-03-10T19:52:49.989Z,2.13
2019-03-10T19:55:18.586Z,2.30
2019-03-10T19:57:47.163Z,2.07
2019-03-10T20:00:19.866Z,2.10
2019-03-10T20:02:49.872Z,1.93
2019-03-10T20:05:18.483Z,1.50
2019-03-10T20:07:47.097Z,1.83
2019-03-10T20:10:20.304Z,1.87
2019-03-10T20:12:50.491Z,2.00
2019-03-10T20:15:20.249Z,2.20
2019-03-10T20:17:48.849Z,2.00
2019-03-10T20:20:26.270Z,2.00
2019-03-10T20:22:54.831Z,2.00
2019-03-10T20:25:23.439Z,1.70
2019-03-10T20:27:51.995Z,1.90
2019-03-10T20:30:24.521Z,1.70
2019-03-10T20:32:53.213Z,1.60
2019-03-10T20:35:21.930Z,1.50
2019-03-10T20:37:50.561Z,2.10
2019-03-10T20:40:21.193Z,1.70
2019-03-10T20:45:34.707Z,1.70
2019-03-10T20:48:03.379Z,1.80
2019-03-10T20:50:31.891Z,2.20
2019-03-10T20:53:00.508Z,2.00
2019-03-10T20:55:29.085Z,1.90
2019-03-10T20:57:57.563Z,1.60
2019-03-10T21:00:28.402Z,1.60
2019-03-10T21:02:57.169Z,1.73
2019-03-10T21:05:25.692Z,1.63
2019-03-10T21:07:54.148Z,1.67
2019-03-10T21:10:24.269Z,1.40
2019-03-10T21:12:52.757Z,1.47
2019-03-10T21:15:22.434Z,1.43
2019-03-10T21:17:51.070Z,1.30
2019-03-10T21:20:20.975Z,1.27
2019-03-10T21:22:51.018Z,1.40
2019-03-10T21:25:30.603Z,1.43
2019-03-10T21:27:59.276Z,1.20
2019-03-10T21:30:29.473Z,1.30
2019-03-10T21:32:58.048Z,1.37
2019-03-10T21:35:26.501Z,1.20
2019-03-10T21:37:55.037Z,1.33
2019-03-10T21:40:32.343Z,1.00
2019-03-10T21:43:00.867Z,1.20
2019-03-10T21:45:29.332Z,1.10
2019-03-10T21:47:58.162Z,1.10
2019-03-10T21:50:26.851Z,1.10
2019-03-10T21:52:55.381Z,1.00
2019-03-10T21:55:23.964Z,1.17
2019-03-10T21:57:52.417Z,1.40
2019-03-10T22:00:21.442Z,1.27
2019-03-10T22:02:50.417Z,1.10
2019-03-10T22:05:19.138Z,1.10
2019-03-10T22:07:47.889Z,1.10
2019-03-10T22:10:27.565Z,1.00
2019-03-10T22:12:53.435Z,1.13
2019-03-10T22:15:22.020Z,0.90
2019-03-10T22:17:50.787Z,1.10
2019-03-10T22:20:20.248Z,1.10
2019-03-10T22:22:50.045Z,1.20
2019-03-10T22:25:19.303Z,1.17
2019-03-10T22:28:07.274Z,1.07
2019-03-10T22:30:35.730Z,1.07
2019-03-10T22:33:04.331Z,1.30
2019-03-10T22:35:32.910Z,1.00
2019-03-10T22:38:01.388Z,1.23
2019-03-10T22:40:29.932Z,1.27
2019-03-10T22:42:58.503Z,1.20
2019-03-10T22:45:27.038Z,1.40
2019-03-10T22:47:55.581Z,1.00
2019-03-10T22:50:24.112Z,1.20
2019-03-10T22:52:52.930Z,1.13
2019-03-10T22:55:21.387Z,1.10
2019-03-10T22:57:49.891Z,0.97
2019-03-10T23:00:43.115Z,1.10
2019-03-10T23:03:11.779Z,1.00
2019-03-10T23:05:59.472Z,1.10
2019-03-10T23:08:27.977Z,1.00
2019-03-10T23:10:56.508Z,1.10
2019-03-10T23:13:24.970Z,0.90
2019-03-10T23:15:53.476Z,0.93
2019-03-10T23:18:21.926Z,0.90
2019-03-10T23:20:51.336Z,0.77
2019-03-10T23:23:19.879Z,0.80
2019-03-10T23:25:48.426Z,0.97
2019-03-10T23:28:16.893Z,0.87
2019-03-10T23:30:45.549Z,1.00
2019-03-10T23:33:14.090Z,0.90
2019-03-10T23:35:43.114Z,0.90
2019-03-10T23:38:11.609Z,0.90
2019-03-10T23:40:40.070Z,0.93
2019-03-10T23:43:08.690Z,0.90
2019-03-10T23:45:37.194Z,0.90
2019-03-10T23:48:05.639Z,0.90
2019-03-10T23:50:34.096Z,0.90
2019-03-10T23:53:02.588Z,0.73
2019-03-10T23:55:31.053Z,0.80
2019-03-10T23:58:00.631Z,0.80
